createdAt,value
2023-12-18T00:01:27.150Z,4.13
2023-12-18T00:03:54.073Z,4.18
2023-12-18T00:06:21.330Z,4.43
2023-12-18T00:08:47.959Z,4.82
2023-12-18T00:11:15.649Z,4.20
2023-12-18T00:13:42.736Z,3.85
2023-12-18T00:16:10.102Z,4.93
2023-12-18T00:18:36.915Z,4.20
2023-12-18T00:21:04.604Z,4.13
2023-12-18T00:23:31.537Z,4.47
2023-12-18T00:25:58.299Z,3.55
2023-12-18T00:28:25.051Z,3.42
2023-12-18T00:30:51.874Z,4.07
2023-12-18T00:33:18.706Z,3.22
2023-12-18T00:35:45.477Z,3.60
2023-12-18T00:38:12.312Z,3.45
2023-12-18T00:40:39.173Z,3.10
2023-12-18T00:43:08.730Z,2.92
2023-12-18T00:45:35.645Z,3.15
2023-12-18T00:48:02.528Z,2.97
2023-12-18T00:50:29.438Z,3.15
2023-12-18T00:52:56.262Z,3.95
2023-12-18T00:55:23.035Z,3.72
2023-12-18T00:57:53.960Z,3.92
2023-12-18T01:00:21.282Z,3.75
2023-12-18T01:02:48.258Z,3.75
2023-12-18T01:05:15.422Z,3.35
2023-12-18T01:07:43.919Z,3.67
2023-12-18T01:10:10.984Z,3.42
2023-12-18T01:12:37.793Z,3.85
2023-12-18T01:15:05.107Z,3.25
2023-12-18T01:17:36.088Z,3.50
2023-12-18T01:20:04.816Z,3.17
2023-12-18T01:22:31.548Z,3.17
2023-12-18T01:24:58.397Z,2.90
2023-12-18T01:27:26.241Z,3.10
2023-12-18T01:29:53.119Z,3.70
2023-12-18T01:32:19.692Z,3.90
2023-12-18T01:34:46.459Z,3.95
2023-12-18T01:37:13.196Z,3.50
2023-12-18T01:39:40.098Z,3.53
2023-12-18T01:42:06.856Z,3.47
2023-12-18T01:44:33.675Z,3.60
2023-12-18T01:47:00.542Z,3.15
2023-12-18T01:49:27.448Z,3.53
2023-12-18T01:51:54.602Z,3.30
2023-12-18T01:54:23.569Z,2.97
2023-12-18T01:56:53.725Z,3.10
2023-12-18T01:59:22.177Z,2.58
2023-12-18T02:01:49.752Z,2.88
2023-12-18T02:04:17.864Z,2.50
2023-12-18T02:06:45.974Z,3.05
2023-12-18T02:09:13.133Z,2.42
2023-12-18T02:11:43.983Z,2.88
2023-12-18T02:14:11.019Z,2.53
2023-12-18T02:16:37.731Z,3.05
2023-12-18T02:19:04.612Z,2.97
2023-12-18T02:21:31.575Z,2.90
2023-12-18T02:23:58.367Z,2.80
2023-12-18T02:26:25.342Z,2.92
2023-12-18T02:28:52.032Z,3.42
2023-12-18T02:31:20.130Z,3.20
2023-12-18T02:33:50.434Z,3.33
2023-12-18T02:36:20.467Z,2.92
2023-12-18T02:38:47.195Z,3.50
2023-12-18T02:41:13.943Z,3.15
2023-12-18T02:43:40.713Z,4.22
2023-12-18T02:46:07.550Z,3.35
2023-12-18T02:48:34.489Z,2.83
2023-12-18T02:51:01.697Z,2.83
2023-12-18T02:53:28.585Z,3.40
2023-12-18T02:55:55.342Z,2.78
2023-12-18T02:58:23.814Z,3.55
2023-12-18T03:00:51.056Z,3.22
2023-12-18T03:03:18.309Z,2.55
2023-12-18T03:05:45.101Z,2.10
2023-12-18T03:08:11.995Z,2.72
2023-12-18T03:10:38.864Z,2.60
2023-12-18T03:13:05.478Z,2.75
2023-12-18T03:15:32.357Z,3.10
2023-12-18T03:17:59.115Z,2.92
2023-12-18T03:20:25.903Z,3.08
2023-12-18T03:22:52.758Z,2.63
2023-12-18T03:25:19.494Z,2.60
2023-12-18T03:27:46.281Z,2.65
2023-12-18T03:30:13.329Z,2.90
2023-12-18T03:32:40.514Z,2.40
2023-12-18T03:35:08.027Z,2.88
2023-12-18T03:37:34.671Z,2.72
2023-12-18T03:40:04.169Z,2.90
2023-12-18T03:42:31.090Z,2.58
2023-12-18T03:44:57.820Z,2.42
2023-12-18T03:47:24.492Z,2.25
2023-12-18T03:49:51.376Z,2.35
2023-12-18T03:52:18.089Z,2.30
2023-12-18T03:54:44.965Z,2.10
2023-12-18T03:57:11.781Z,1.92
2023-12-18T03:59:38.695Z,2.00
2023-12-18T04:02:05.256Z,1.95
2023-12-18T04:04:32.797Z,1.88
2023-12-18T04:06:59.611Z,2.45
2023-12-18T04:09:26.216Z,2.20
2023-12-18T04:11:52.930Z,2.15
2023-12-18T04:14:19.647Z,2.17
2023-12-18T04:16:49.371Z,2.17
2023-12-18T04:19:16.306Z,1.85
2023-12-18T04:21:43.169Z,2.20
2023-12-18T04:24:10.005Z,2.03
2023-12-18T04:26:36.621Z,2.13
2023-12-18T04:29:03.865Z,1.95
2023-12-18T04:31:30.637Z,2.08
2023-12-18T04:33:57.343Z,2.20
2023-12-18T04:36:24.505Z,2.20
2023-12-18T04:38:51.321Z,2.05
2023-12-18T04:41:21.921Z,2.20
2023-12-18T04:43:49.921Z,2.58
2023-12-18T04:46:20.785Z,1.85
2023-12-18T04:48:47.774Z,2.05
2023-12-18T04:51:14.461Z,2.10
2023-12-18T04:53:41.635Z,2.50
2023-12-18T04:56:08.315Z,2.10
2023-12-18T04:58:37.169Z,1.75
2023-12-18T05:01:07.123Z,2.35
2023-12-18T05:03:34.401Z,2.42
2023-12-18T05:06:02.374Z,2.00
2023-12-18T05:08:29.917Z,2.10
2023-12-18T05:10:56.876Z,1.88
2023-12-18T05:13:23.436Z,2.40
2023-12-18T05:15:52.609Z,1.70
2023-12-18T05:18:19.650Z,2.38
2023-12-18T05:20:46.464Z,1.80
2023-12-18T05:23:13.308Z,1.75
2023-12-18T05:25:40.030Z,1.77
2023-12-18T05:28:06.625Z,2.13
2023-12-18T05:30:35.657Z,1.88
2023-12-18T05:33:03.362Z,1.85
2023-12-18T05:35:30.357Z,1.48
2023-12-18T05:37:57.226Z,1.92
2023-12-18T05:40:24.065Z,1.70
2023-12-18T05:42:51.207Z,2.13
2023-12-18T05:45:17.832Z,1.55
2023-12-18T05:47:44.675Z,1.90
2023-12-18T05:50:12.639Z,2.25
2023-12-18T05:52:39.724Z,2.40
2023-12-18T05:55:09.872Z,2.30
2023-12-18T05:57:39.966Z,2.75
2023-12-18T06:00:07.885Z,3.28
2023-12-18T06:02:34.973Z,3.15
2023-12-18T06:05:02.345Z,2.35
2023-12-18T06:07:31.586Z,2.20
2023-12-18T06:09:58.431Z,2.25
2023-12-18T06:12:25.281Z,2.05
2023-12-18T06:14:51.933Z,2.75
2023-12-18T06:17:18.590Z,1.90
2023-12-18T06:19:45.843Z,2.50
2023-12-18T06:22:12.958Z,2.33
2023-12-18T06:24:40.588Z,2.30
2023-12-18T06:27:07.359Z,2.90
2023-12-18T06:29:34.367Z,2.15
2023-12-18T06:32:01.153Z,2.92
2023-12-18T06:34:28.088Z,2.45
2023-12-18T06:36:54.757Z,2.50
2023-12-18T06:39:21.739Z,2.80
2023-12-18T06:41:48.328Z,2.65
2023-12-18T06:44:15.229Z,1.83
2023-12-18T06:46:41.806Z,2.35
2023-12-18T06:49:08.751Z,1.83
2023-12-18T06:51:35.670Z,1.80
2023-12-18T06:54:02.401Z,1.50
2023-12-18T06:56:29.112Z,1.70
2023-12-18T06:58:55.954Z,1.98
2023-12-18T07:01:22.915Z,3.05
2023-12-18T07:03:49.647Z,2.08
2023-12-18T07:06:18.396Z,2.08
2023-12-18T07:08:45.136Z,1.73
2023-12-18T07:11:11.699Z,1.90
2023-12-18T07:13:38.668Z,2.28
2023-12-18T07:16:06.634Z,1.70
2023-12-18T07:18:33.555Z,2.17
2023-12-18T07:21:00.828Z,3.15
2023-12-18T07:23:28.147Z,3.28
2023-12-18T07:25:54.900Z,3.25
2023-12-18T07:28:21.876Z,2.80
2023-12-18T07:30:48.493Z,2.50
2023-12-18T07:33:15.366Z,2.30
2023-12-18T07:35:42.011Z,1.77
2023-12-18T07:38:09.010Z,2.63
2023-12-18T07:40:35.718Z,2.92
2023-12-18T07:43:02.380Z,4.45
2023-12-18T07:45:29.457Z,2.17
2023-12-18T07:47:58.814Z,1.90
2023-12-18T07:50:25.846Z,2.25
2023-12-18T07:52:52.471Z,2.10
2023-12-18T07:55:19.214Z,1.48
2023-12-18T07:57:46.012Z,2.03
2023-12-18T08:00:15.141Z,2.58
2023-12-18T08:02:42.225Z,3.92
2023-12-18T08:05:09.262Z,3.78
2023-12-18T08:07:36.120Z,2.90
2023-12-18T08:10:02.995Z,2.63
2023-12-18T08:12:29.749Z,2.28
2023-12-18T08:14:56.541Z,2.65
2023-12-18T08:17:23.227Z,2.60
2023-12-18T08:19:50.233Z,2.10
2023-12-18T08:22:17.487Z,2.90
2023-12-18T08:24:44.420Z,2.17
2023-12-18T08:27:11.316Z,2.08
2023-12-18T08:29:41.332Z,1.98
2023-12-18T08:32:08.190Z,2.38
2023-12-18T08:34:35.608Z,2.28
2023-12-18T08:37:03.149Z,2.20
2023-12-18T08:39:29.916Z,2.42
2023-12-18T08:41:56.773Z,2.10
2023-12-18T08:44:23.592Z,1.90
2023-12-18T08:46:51.125Z,1.67
2023-12-18T08:49:17.846Z,1.90
2023-12-18T08:51:44.816Z,1.98
2023-12-18T08:54:11.762Z,2.05
2023-12-18T08:56:38.529Z,1.75
2023-12-18T08:59:05.374Z,1.25
2023-12-18T09:01:37.019Z,1.17
2023-12-18T09:06:31.398Z,1.40
2023-12-18T09:08:58.326Z,1.20
2023-12-18T09:11:25.411Z,1.60
2023-12-18T09:13:52.059Z,1.65
2023-12-18T09:16:18.661Z,1.98
2023-12-18T09:18:45.817Z,2.75
2023-12-18T09:21:12.509Z,1.83
2023-12-18T09:23:39.276Z,2.50
2023-12-18T09:26:06.835Z,2.30
2023-12-18T09:28:33.742Z,1.35
2023-12-18T09:31:00.425Z,1.40
2023-12-18T09:33:27.598Z,1.55
2023-12-18T09:35:54.415Z,1.30
2023-12-18T09:38:21.021Z,1.42
2023-12-18T09:40:47.666Z,1.40
2023-12-18T09:43:21.105Z,1.45
2023-12-18T09:45:49.010Z,1.50
2023-12-18T09:48:19.460Z,2.70
2023-12-18T09:50:47.019Z,1.80
2023-12-18T09:53:15.178Z,1.70
2023-12-18T09:55:42.586Z,1.35
2023-12-18T09:58:13.530Z,2.05
2023-12-18T10:00:40.527Z,1.27
2023-12-18T10:03:07.368Z,0.93
2023-12-18T10:05:34.168Z,0.80
2023-12-18T10:08:02.755Z,0.93
2023-12-18T10:10:29.791Z,1.00
2023-12-18T10:12:56.776Z,1.60
2023-12-18T10:15:23.953Z,1.90
2023-12-18T10:17:50.848Z,1.33
2023-12-18T10:20:19.321Z,1.00
2023-12-18T10:22:46.139Z,1.42
2023-12-18T10:25:13.589Z,1.67
2023-12-18T10:27:40.684Z,1.25
2023-12-18T10:30:08.969Z,1.13
2023-12-18T10:32:41.363Z,1.25
2023-12-18T10:35:09.380Z,1.05
2023-12-18T10:37:38.194Z,1.13
2023-12-18T10:40:08.028Z,1.10
2023-12-18T10:42:39.747Z,0.85
2023-12-18T10:45:08.271Z,1.10
2023-12-18T10:47:36.319Z,0.90
2023-12-18T10:50:06.965Z,1.23
2023-12-18T10:52:34.626Z,1.20
2023-12-18T10:55:03.678Z,1.10
2023-12-18T10:57:31.802Z,1.30
2023-12-18T11:00:00.019Z,1.67
2023-12-18T11:02:27.784Z,1.40
2023-12-18T11:04:55.762Z,1.30
2023-12-18T11:07:22.652Z,1.60
2023-12-18T11:10:11.977Z,1.13
2023-12-18T11:12:42.830Z,0.95
2023-12-18T11:15:30.620Z,1.15
2023-12-18T11:18:29.339Z,0.77
2023-12-18T11:20:58.522Z,0.68
2023-12-18T11:23:32.811Z,1.23
2023-12-18T11:26:14.382Z,1.00
2023-12-18T11:28:42.782Z,0.93
2023-12-18T11:31:13.092Z,1.27
2023-12-18T11:34:03.311Z,1.17
2023-12-18T11:36:30.417Z,1.00
2023-12-18T11:38:58.314Z,1.30
2023-12-18T11:41:39.960Z,1.27
2023-12-18T11:44:08.828Z,1.00
2023-12-18T11:46:35.533Z,1.00
2023-12-18T11:49:04.310Z,1.00
2023-12-18T11:51:31.631Z,0.90
2023-12-18T11:53:59.994Z,0.90
2023-12-18T11:56:29.258Z,0.85
2023-12-18T11:58:56.964Z,1.17
2023-12-18T12:01:25.080Z,0.90
2023-12-18T12:03:53.908Z,1.15
2023-12-18T12:06:21.306Z,1.27
2023-12-18T12:08:49.207Z,1.42
2023-12-18T12:11:15.881Z,2.05
2023-12-18T12:13:42.838Z,1.17
2023-12-18T12:16:09.594Z,1.10
2023-12-18T12:18:46.748Z,1.00
2023-12-18T12:21:14.192Z,1.10
2023-12-18T12:23:40.856Z,1.17
2023-12-18T12:26:10.212Z,0.90
2023-12-18T12:28:37.182Z,1.10
2023-12-18T12:31:05.009Z,1.25
2023-12-18T12:33:46.232Z,1.10
2023-12-18T12:36:18.388Z,1.23
2023-12-18T12:38:45.715Z,1.10
2023-12-18T12:41:13.400Z,1.20
2023-12-18T12:43:40.192Z,0.80
2023-12-18T12:46:07.566Z,0.90
2023-12-18T12:48:36.860Z,0.90
2023-12-18T12:51:05.906Z,0.95
2023-12-18T12:53:34.348Z,0.93
2023-12-18T12:56:01.329Z,1.05
2023-12-18T12:58:34.642Z,1.67
2023-12-18T13:01:03.576Z,1.20
2023-12-18T13:03:31.549Z,1.20
2023-12-18T13:06:00.360Z,1.73
2023-12-18T13:08:27.040Z,1.60
2023-12-18T13:10:54.507Z,0.60
2023-12-18T13:13:21.732Z,0.73
2023-12-18T13:15:48.410Z,1.08
2023-12-18T13:20:45.656Z,0.90
2023-12-18T13:23:12.422Z,2.03
2023-12-18T13:25:38.988Z,0.93
2023-12-18T13:28:06.165Z,0.95
2023-12-18T13:30:32.962Z,1.08
2023-12-18T13:32:59.862Z,1.27
2023-12-18T13:35:27.846Z,0.60
2023-12-18T13:37:54.903Z,0.40
2023-12-18T13:40:21.650Z,0.60
2023-12-18T13:42:48.788Z,0.65
2023-12-18T13:45:15.701Z,0.73
2023-12-18T13:47:43.505Z,0.50
2023-12-18T13:50:10.579Z,0.60
2023-12-18T13:52:38.379Z,0.63
2023-12-18T13:55:06.843Z,0.50
2023-12-18T13:57:39.460Z,0.20
2023-12-18T14:00:13.768Z,0.55
2023-12-18T14:02:43.313Z,0.50
2023-12-18T14:05:10.555Z,0.40
2023-12-18T14:07:37.876Z,0.50
2023-12-18T14:10:08.413Z,0.50
2023-12-18T14:12:36.055Z,0.60
2023-12-18T14:15:03.368Z,0.50
2023-12-18T14:17:29.983Z,0.60
2023-12-18T14:19:58.454Z,0.40
2023-12-18T14:22:25.211Z,0.40
2023-12-18T14:24:52.055Z,0.40
2023-12-18T14:27:18.830Z,0.50
2023-12-18T14:29:45.584Z,0.50
2023-12-18T14:32:12.270Z,0.50
2023-12-18T14:34:39.006Z,0.45
2023-12-18T14:37:09.214Z,0.70
2023-12-18T14:39:36.282Z,0.50
2023-12-18T14:42:03.201Z,0.50
2023-12-18T14:44:31.974Z,0.40
2023-12-18T14:46:58.563Z,0.50
2023-12-18T14:49:25.343Z,0.40
2023-12-18T14:51:51.971Z,0.50
2023-12-18T14:54:18.639Z,0.43
2023-12-18T14:56:53.549Z,0.50
2023-12-18T14:59:20.955Z,0.60
2023-12-18T15:01:47.736Z,0.40
2023-12-18T15:04:19.457Z,0.77
2023-12-18T15:06:49.792Z,0.70
2023-12-18T15:09:18.400Z,0.60
2023-12-18T15:11:47.505Z,0.60
2023-12-18T15:14:14.143Z,0.60
2023-12-18T15:16:41.308Z,0.80
2023-12-18T15:19:08.154Z,0.75
2023-12-18T15:21:34.894Z,0.50
2023-12-18T15:24:01.556Z,0.60
2023-12-18T15:26:39.274Z,0.68
2023-12-18T15:29:06.153Z,0.70
2023-12-18T15:31:33.160Z,0.93
2023-12-18T15:34:02.698Z,0.70
2023-12-18T15:36:31.963Z,0.70
2023-12-18T15:38:58.623Z,0.60
2023-12-18T15:41:25.506Z,0.63
2023-12-18T15:43:52.279Z,0.80
2023-12-18T15:46:19.071Z,0.70
2023-12-18T15:48:45.928Z,0.60
2023-12-18T15:51:13.896Z,0.75
2023-12-18T15:53:43.800Z,0.70
2023-12-18T15:56:10.675Z,0.70
2023-12-18T15:58:37.291Z,0.90
2023-12-18T16:01:07.435Z,0.70
2023-12-18T16:03:36.614Z,0.90
2023-12-18T16:06:07.196Z,1.17
2023-12-18T16:08:34.439Z,0.82
2023-12-18T16:11:01.829Z,0.98
2023-12-18T16:13:28.866Z,1.20
2023-12-18T16:15:55.679Z,1.13
2023-12-18T16:18:22.619Z,0.90
2023-12-18T16:20:52.548Z,1.00
2023-12-18T16:23:20.418Z,1.08
2023-12-18T16:25:48.200Z,1.20
2023-12-18T16:28:14.824Z,1.27
2023-12-18T16:30:45.262Z,1.48
2023-12-18T16:33:20.383Z,1.60
2023-12-18T16:35:47.867Z,1.30
2023-12-18T16:38:14.495Z,1.15
2023-12-18T16:40:41.378Z,1.60
2023-12-18T16:43:08.153Z,1.60
2023-12-18T16:45:35.132Z,1.75
2023-12-18T16:48:02.034Z,1.65
2023-12-18T16:50:28.840Z,2.05
2023-12-18T16:52:55.714Z,1.83
2023-12-18T16:55:22.319Z,1.92
2023-12-18T16:57:52.521Z,2.63
2023-12-18T17:00:19.673Z,2.15
2023-12-18T17:02:46.567Z,2.42
2023-12-18T17:05:13.664Z,2.20
2023-12-18T17:07:40.551Z,3.75
2023-12-18T17:10:07.704Z,4.07
2023-12-18T17:12:34.685Z,3.15
2023-12-18T17:15:01.696Z,2.45
2023-12-18T17:17:30.406Z,2.10
2023-12-18T17:19:57.068Z,2.15
2023-12-18T17:22:24.175Z,2.10
2023-12-18T17:24:53.624Z,2.28
2023-12-18T17:27:20.635Z,2.00
2023-12-18T17:29:47.277Z,2.55
2023-12-18T17:32:27.837Z,3.17
2023-12-18T17:34:57.501Z,3.38
2023-12-18T17:37:25.534Z,3.00
2023-12-18T17:39:52.480Z,3.10
2023-12-18T17:42:20.127Z,2.90
2023-12-18T17:44:47.423Z,3.33
2023-12-18T17:47:14.262Z,3.08
2023-12-18T17:49:41.917Z,2.92
2023-12-18T17:52:08.869Z,3.15
2023-12-18T17:54:35.669Z,3.13
2023-12-18T17:57:04.834Z,3.28
2023-12-18T17:59:31.630Z,2.90
2023-12-18T18:01:58.389Z,3.20
2023-12-18T18:04:25.086Z,3.80
2023-12-18T18:06:52.800Z,3.67
2023-12-18T18:09:19.503Z,3.67
2023-12-18T18:11:46.412Z,4.15
2023-12-18T18:14:13.264Z,4.28
2023-12-18T18:16:40.191Z,4.32
2023-12-18T18:19:09.005Z,4.30
2023-12-18T18:21:36.325Z,4.30
2023-12-18T18:24:03.244Z,4.18
2023-12-18T18:26:29.921Z,3.95
2023-12-18T18:28:56.802Z,3.92
2023-12-18T18:31:23.549Z,3.55
2023-12-18T18:33:50.460Z,3.22
2023-12-18T18:36:17.313Z,3.30
2023-12-18T18:38:44.816Z,3.08
2023-12-18T18:41:11.579Z,3.60
2023-12-18T18:43:38.391Z,3.15
2023-12-18T18:46:06.191Z,3.30
2023-12-18T18:48:33.225Z,3.22
2023-12-18T18:51:00.461Z,8.98
2023-12-18T18:53:27.336Z,7.30
2023-12-18T18:55:56.206Z,6.85
2023-12-18T18:58:23.825Z,4.60
2023-12-18T19:00:51.665Z,5.25
2023-12-18T19:03:20.534Z,5.70
2023-12-18T19:05:47.758Z,4.88
2023-12-18T19:08:14.665Z,4.47
2023-12-18T19:10:41.441Z,4.68
2023-12-18T19:13:08.325Z,4.68
2023-12-18T19:15:35.166Z,4.13
2023-12-18T19:18:02.014Z,5.25
2023-12-18T19:20:29.935Z,6.22
2023-12-18T19:22:56.786Z,8.73
2023-12-18T19:25:23.532Z,8.63
2023-12-18T19:27:50.710Z,6.95
2023-12-18T19:30:17.791Z,7.20
2023-12-18T19:32:45.525Z,6.72
2023-12-18T19:35:12.303Z,5.88
2023-12-18T19:37:41.824Z,5.47
2023-12-18T19:40:10.998Z,4.95
2023-12-18T19:42:37.719Z,5.82
2023-12-18T19:45:05.030Z,5.18
2023-12-18T19:47:31.763Z,5.72
2023-12-18T19:49:59.419Z,6.18
2023-12-18T19:52:26.117Z,5.22
2023-12-18T19:54:53.146Z,4.97
2023-12-18T19:57:19.929Z,3.65
2023-12-18T19:59:46.807Z,4.05
2023-12-18T20:02:13.393Z,4.35
2023-12-18T20:04:40.433Z,4.07
2023-12-18T20:07:07.207Z,3.83
2023-12-18T20:09:34.263Z,4.32
2023-12-18T20:12:00.961Z,4.75
2023-12-18T20:14:27.973Z,3.80
2023-12-18T20:16:54.687Z,3.92
2023-12-18T20:19:21.680Z,5.07
2023-12-18T20:21:48.468Z,4.07
2023-12-18T20:24:15.346Z,4.32
2023-12-18T20:26:44.548Z,3.95
2023-12-18T20:29:13.291Z,5.28
2023-12-18T20:31:40.579Z,3.78
2023-12-18T20:34:07.318Z,3.28
2023-12-18T20:36:34.108Z,3.80
2023-12-18T20:39:01.467Z,4.68
2023-12-18T20:41:28.069Z,5.35
2023-12-18T20:43:55.552Z,5.85
2023-12-18T20:46:22.336Z,5.88
2023-12-18T20:48:50.735Z,5.70
2023-12-18T20:51:17.527Z,5.57
2023-12-18T20:53:44.346Z,4.82
2023-12-18T20:56:14.642Z,4.78
2023-12-18T20:58:41.989Z,4.80
2023-12-18T21:01:09.791Z,4.57
2023-12-18T21:03:37.081Z,4.35
2023-12-18T21:06:04.269Z,4.32
2023-12-18T21:08:32.112Z,3.33
2023-12-18T21:10:59.199Z,2.80
2023-12-18T21:13:26.013Z,3.70
2023-12-18T21:15:55.328Z,2.67
2023-12-18T21:18:22.271Z,3.20
2023-12-18T21:20:49.073Z,3.00
2023-12-18T21:23:16.389Z,2.85
2023-12-18T21:25:45.997Z,3.50
2023-12-18T21:28:12.866Z,3.40
2023-12-18T21:30:39.670Z,2.85
2023-12-18T21:33:06.474Z,3.45
2023-12-18T21:35:33.645Z,3.70
2023-12-18T21:38:00.316Z,3.70
2023-12-18T21:40:27.123Z,3.90
2023-12-18T21:42:53.761Z,4.60
2023-12-18T21:45:20.724Z,4.85
2023-12-18T21:47:48.370Z,3.97
2023-12-18T21:50:15.481Z,4.15
2023-12-18T21:52:42.364Z,4.43
2023-12-18T21:55:09.222Z,4.18
2023-12-18T21:57:36.106Z,4.32
2023-12-18T22:00:04.052Z,3.65
2023-12-18T22:02:37.192Z,3.72
2023-12-18T22:05:04.215Z,4.03
2023-12-18T22:07:31.103Z,4.40
2023-12-18T22:09:58.273Z,3.70
2023-12-18T22:12:24.933Z,4.20
2023-12-18T22:14:51.824Z,3.92
2023-12-18T22:17:19.569Z,4.18
2023-12-18T22:19:46.541Z,4.85
2023-12-18T22:22:13.593Z,4.03
2023-12-18T22:24:40.432Z,4.55
2023-12-18T22:27:07.472Z,4.15
2023-12-18T22:29:37.048Z,4.32
2023-12-18T22:32:04.212Z,3.75
2023-12-18T22:34:32.389Z,4.30
2023-12-18T22:36:59.680Z,3.78
2023-12-18T22:39:26.322Z,3.70
2023-12-18T22:41:53.371Z,4.05
2023-12-18T22:44:20.879Z,3.85
2023-12-18T22:46:47.653Z,3.58
2023-12-18T22:49:14.660Z,4.20
2023-12-18T22:51:41.492Z,3.63
2023-12-18T22:54:08.357Z,3.55
2023-12-18T22:56:35.358Z,4.00
2023-12-18T22:59:02.011Z,3.53
2023-12-18T23:01:28.965Z,3.95
2023-12-18T23:03:55.899Z,3.97
2023-12-18T23:06:22.645Z,4.03
2023-12-18T23:08:52.530Z,3.80
2023-12-18T23:11:20.502Z,4.63
2023-12-18T23:13:47.237Z,4.63
2023-12-18T23:16:14.959Z,4.60
2023-12-18T23:18:41.974Z,3.88
2023-12-18T23:21:08.697Z,3.28
2023-12-18T23:23:35.424Z,3.83
2023-12-18T23:26:02.092Z,3.30
2023-12-18T23:28:29.428Z,3.50
2023-12-18T23:30:56.687Z,3.42
2023-12-18T23:33:28.362Z,2.58
2023-12-18T23:35:59.152Z,2.50
2023-12-18T23:38:25.727Z,2.58
2023-12-18T23:40:52.320Z,2.75
2023-12-18T23:43:19.370Z,3.17
2023-12-18T23:45:46.111Z,3.03
2023-12-18T23:48:13.060Z,2.88
2023-12-18T23:50:39.679Z,2.78
2023-12-18T23:53:08.115Z,2.90
2023-12-18T23:55:34.964Z,3.28
2023-12-18T23:58:02.427Z,3.15
